sensor_id;sensor_type;location;lat;lon;timestamp;temperature;humidity
41471;DHT22;27211;51.220;5.308;2023-02-15T00:00:06;4.30;99.90
41471;DHT22;27211;51.220;5.308;2023-02-15T00:02:36;4.30;99.90
41471;DHT22;27211;51.220;5.308;2023-02-15T00:05:06;4.20;99.90
41471;DHT22;27211;51.220;5.308;2023-02-15T00:07:34;4.20;99.90
41471;DHT22;27211;51.220;5.308;2023-02-15T00:10:02;4.10;99.90
41471;DHT22;27211;51.220;5.308;2023-02-15T00:12:31;4.10;99.90
41471;DHT22;27211;51.220;5.308;2023-02-15T00:14:58;4.10;99.90
41471;DHT22;27211;51.220;5.308;2023-02-15T00:17:27;4.00;99.90
41471;DHT22;27211;51.220;5.308;2023-02-15T00:19:54;4.00;99.90
41471;DHT22;27211;51.220;5.308;2023-02-15T00:22:22;4.00;99.90
41471;DHT22;27211;51.220;5.308;2023-02-15T00:24:50;4.00;99.90
41471;DHT22;27211;51.220;5.308;2023-02-15T00:27:19;3.90;99.90
41471;DHT22;27211;51.220;5.308;2023-02-15T00:29:47;3.90;99.90
41471;DHT22;27211;51.220;5.308;2023-02-15T00:32:13;4.00;99.90
41471;DHT22;27211;51.220;5.308;2023-02-15T00:34:40;4.00;99.90
41471;DHT22;27211;51.220;5.308;2023-02-15T00:37:07;4.00;99.90
41471;DHT22;27211;51.220;5.308;2023-02-15T00:39:35;4.00;99.90
41471;DHT22;27211;51.220;5.308;2023-02-15T00:42:06;4.00;99.90
41471;DHT22;27211;51.220;5.308;2023-02-15T00:44:33;4.00;99.90
41471;DHT22;27211;51.220;5.308;2023-02-15T00:47:00;3.90;99.90
41471;DHT22;27211;51.220;5.308;2023-02-15T00:49:27;3.90;99.90
41471;DHT22;27211;51.220;5.308;2023-02-15T00:51:54;3.90;99.90
41471;DHT22;27211;51.220;5.308;2023-02-15T00:54:27;3.80;99.90
41471;DHT22;27211;51.220;5.308;2023-02-15T00:56:54;3.70;99.90
41471;DHT22;27211;51.220;5.308;2023-02-15T00:59:21;3.80;99.90
41471;DHT22;27211;51.220;5.308;2023-02-15T01:01:48;3.70;99.90
41471;DHT22;27211;51.220;5.308;2023-02-15T01:04:24;3.70;99.90
41471;DHT22;27211;51.220;5.308;2023-02-15T01:06:56;3.60;99.90
41471;DHT22;27211;51.220;5.308;2023-02-15T01:09:25;3.60;99.90
41471;DHT22;27211;51.220;5.308;2023-02-15T01:11:54;3.50;99.90
41471;DHT22;27211;51.220;5.308;2023-02-15T01:14:22;3.50;99.90
41471;DHT22;27211;51.220;5.308;2023-02-15T01:16:49;3.50;99.90
41471;DHT22;27211;51.220;5.308;2023-02-15T01:19:23;3.50;99.90
41471;DHT22;27211;51.220;5.308;2023-02-15T01:21:49;3.40;99.90
41471;DHT22;27211;51.220;5.308;2023-02-15T01:24:17;3.40;99.90
41471;DHT22;27211;51.220;5.308;2023-02-15T01:26:45;3.40;99.90
41471;DHT22;27211;51.220;5.308;2023-02-15T01:29:12;3.40;99.90
41471;DHT22;27211;51.220;5.308;2023-02-15T01:31:39;3.40;99.90
41471;DHT22;27211;51.220;5.308;2023-02-15T01:34:05;3.40;99.90
41471;DHT22;27211;51.220;5.308;2023-02-15T01:36:33;3.40;99.90
41471;DHT22;27211;51.220;5.308;2023-02-15T01:39:15;3.40;99.90
41471;DHT22;27211;51.220;5.308;2023-02-15T01:41:43;3.40;99.90
41471;DHT22;27211;51.220;5.308;2023-02-15T01:50:17;3.30;99.90
41471;DHT22;27211;51.220;5.308;2023-02-15T01:53:02;3.30;99.90
41471;DHT22;27211;51.220;5.308;2023-02-15T01:55:39;3.30;99.90
41471;DHT22;27211;51.220;5.308;2023-02-15T01:58:07;3.30;99.90
41471;DHT22;27211;51.220;5.308;2023-02-15T02:00:38;3.30;99.90
41471;DHT22;27211;51.220;5.308;2023-02-15T02:03:07;3.20;99.90
41471;DHT22;27211;51.220;5.308;2023-02-15T02:05:35;3.20;99.90
41471;DHT22;27211;51.220;5.308;2023-02-15T02:08:03;3.20;99.90
41471;DHT22;27211;51.220;5.308;2023-02-15T02:10:36;3.20;99.90
41471;DHT22;27211;51.220;5.308;2023-02-15T02:13:13;3.20;99.90
41471;DHT22;27211;51.220;5.308;2023-02-15T02:15:58;3.10;99.90
41471;DHT22;27211;51.220;5.308;2023-02-15T02:24:41;3.20;99.90
41471;DHT22;27211;51.220;5.308;2023-02-15T02:35:18;3.10;99.90
41471;DHT22;27211;51.220;5.308;2023-02-15T02:38:58;3.00;99.90
41471;DHT22;27211;51.220;5.308;2023-02-15T02:44:34;3.00;99.90
41471;DHT22;27211;51.220;5.308;2023-02-15T12:56:27;21.10;63.10
41471;DHT22;27211;51.220;5.308;2023-02-15T12:59:05;21.00;64.10
41471;DHT22;27211;51.220;5.308;2023-02-15T13:01:34;20.50;64.80
41471;DHT22;27211;51.220;5.308;2023-02-15T13:04:26;20.50;65.00
41471;DHT22;27211;51.220;5.308;2023-02-15T13:06:59;20.40;65.10
41471;DHT22;27211;51.220;5.308;2023-02-15T13:12:24;19.30;67.00
41471;DHT22;27211;51.220;5.308;2023-02-15T13:15:46;19.50;67.30
41471;DHT22;27211;51.220;5.308;2023-02-15T13:18:30;19.30;67.30
41471;DHT22;27211;51.220;5.308;2023-02-15T13:21:20;19.20;68.00
41471;DHT22;27211;51.220;5.308;2023-02-15T13:23:52;19.90;67.30
41471;DHT22;27211;51.220;5.308;2023-02-15T13:26:22;20.40;66.70
41471;DHT22;27211;51.220;5.308;2023-02-15T13:29:05;20.80;65.80
41471;DHT22;27211;51.220;5.308;2023-02-15T13:31:35;20.80;65.70
41471;DHT22;27211;51.220;5.308;2023-02-15T13:40:18;21.50;65.30
41471;DHT22;27211;51.220;5.308;2023-02-15T13:42:40;21.10;65.80
41471;DHT22;27211;51.220;5.308;2023-02-15T13:48:04;21.80;64.50
41471;DHT22;27211;51.220;5.308;2023-02-15T13:53:25;20.20;67.20
41471;DHT22;27211;51.220;5.308;2023-02-15T13:56:02;19.30;69.00
41471;DHT22;27211;51.220;5.308;2023-02-15T14:01:19;18.20;71.60
41471;DHT22;27211;51.220;5.308;2023-02-15T14:04:25;18.40;71.80
41471;DHT22;27211;51.220;5.308;2023-02-15T14:12:54;17.50;73.70
41471;DHT22;27211;51.220;5.308;2023-02-15T14:18:35;17.00;75.90
41471;DHT22;27211;51.220;5.308;2023-02-15T14:29:22;17.60;76.10
41471;DHT22;27211;51.220;5.308;2023-02-15T14:31:56;17.20;76.10
41471;DHT22;27211;51.220;5.308;2023-02-15T14:34:48;17.50;75.90
41471;DHT22;27211;51.220;5.308;2023-02-15T14:37:22;18.30;75.00
41471;DHT22;27211;51.220;5.308;2023-02-15T14:43:25;17.90;75.90
41471;DHT22;27211;51.220;5.308;2023-02-15T14:45:56;17.60;76.00
41471;DHT22;27211;51.220;5.308;2023-02-15T14:50:56;16.90;77.80
41471;DHT22;27211;51.220;5.308;2023-02-15T14:56:26;16.60;79.20
41471;DHT22;27211;51.220;5.308;2023-02-15T14:58:54;16.40;79.80
41471;DHT22;27211;51.220;5.308;2023-02-15T15:01:36;16.20;81.00
41471;DHT22;27211;51.220;5.308;2023-02-15T15:12:57;15.70;82.70
41471;DHT22;27211;51.220;5.308;2023-02-15T15:18:05;15.30;85.00
41471;DHT22;27211;51.220;5.308;2023-02-15T15:20:49;15.20;85.90
41471;DHT22;27211;51.220;5.308;2023-02-15T15:26:27;15.60;85.50
41471;DHT22;27211;51.220;5.308;2023-02-15T15:28:56;15.50;85.40
41471;DHT22;27211;51.220;5.308;2023-02-15T15:31:50;15.10;86.60
41471;DHT22;27211;51.220;5.308;2023-02-15T15:34:28;15.20;87.70
41471;DHT22;27211;51.220;5.308;2023-02-15T15:46:01;14.80;90.30
41471;DHT22;27211;51.220;5.308;2023-02-15T15:48:35;14.80;90.50
41471;DHT22;27211;51.220;5.308;2023-02-15T15:51:13;14.80;90.90
41471;DHT22;27211;51.220;5.308;2023-02-15T15:53:47;14.80;91.00
41471;DHT22;27211;51.220;5.308;2023-02-15T15:56:29;14.90;91.00
41471;DHT22;27211;51.220;5.308;2023-02-15T15:59:04;14.80;91.20
41471;DHT22;27211;51.220;5.308;2023-02-15T16:01:38;14.60;91.80
41471;DHT22;27211;51.220;5.308;2023-02-15T16:04:10;14.60;91.90
41471;DHT22;27211;51.220;5.308;2023-02-15T16:10:05;14.50;93.10
41471;DHT22;27211;51.220;5.308;2023-02-15T16:12:40;14.80;92.60
41471;DHT22;27211;51.220;5.308;2023-02-15T16:15:19;14.90;92.50
41471;DHT22;27211;51.220;5.308;2023-02-15T16:17:50;14.30;93.60
41471;DHT22;27211;51.220;5.308;2023-02-15T16:20:26;14.30;94.00
41471;DHT22;27211;51.220;5.308;2023-02-15T16:23:04;14.00;94.80
41471;DHT22;27211;51.220;5.308;2023-02-15T16:25:39;13.90;95.50
41471;DHT22;27211;51.220;5.308;2023-02-15T16:28:11;13.90;95.90
41471;DHT22;27211;51.220;5.308;2023-02-15T16:30:39;14.20;95.50
41471;DHT22;27211;51.220;5.308;2023-02-15T16:33:11;14.60;95.10
41471;DHT22;27211;51.220;5.308;2023-02-15T16:35:39;14.60;94.90
41471;DHT22;27211;51.220;5.308;2023-02-15T16:38:11;14.00;95.80
41471;DHT22;27211;51.220;5.308;2023-02-15T16:40:40;13.80;96.60
41471;DHT22;27211;51.220;5.308;2023-02-15T16:43:21;14.10;96.70
41471;DHT22;27211;51.220;5.308;2023-02-15T16:45:50;13.80;97.20
41471;DHT22;27211;51.220;5.308;2023-02-15T16:48:23;13.60;98.00
41471;DHT22;27211;51.220;5.308;2023-02-15T16:50:54;13.30;98.90
41471;DHT22;27211;51.220;5.308;2023-02-15T16:53:25;13.00;99.90
41471;DHT22;27211;51.220;5.308;2023-02-15T16:56:02;13.20;99.90
41471;DHT22;27211;51.220;5.308;2023-02-15T16:58:40;13.60;99.90
41471;DHT22;27211;51.220;5.308;2023-02-15T17:01:10;13.50;99.90
41471;DHT22;27211;51.220;5.308;2023-02-15T17:03:41;13.70;99.90
41471;DHT22;27211;51.220;5.308;2023-02-15T17:06:23;13.50;99.90
41471;DHT22;27211;51.220;5.308;2023-02-15T17:08:52;13.60;99.90
41471;DHT22;27211;51.220;5.308;2023-02-15T17:11:33;13.30;99.90
41471;DHT22;27211;51.220;5.308;2023-02-15T17:16:35;13.10;99.90
41471;DHT22;27211;51.220;5.308;2023-02-15T17:19:23;13.20;99.90
41471;DHT22;27211;51.220;5.308;2023-02-15T17:21:57;13.00;99.90
41471;DHT22;27211;51.220;5.308;2023-02-15T17:24:40;12.80;99.90
41471;DHT22;27211;51.220;5.308;2023-02-15T17:27:38;12.90;99.90
41471;DHT22;27211;51.220;5.308;2023-02-15T17:30:15;12.90;99.90
41471;DHT22;27211;51.220;5.308;2023-02-15T17:32:54;12.60;99.90
41471;DHT22;27211;51.220;5.308;2023-02-15T17:35:30;12.40;99.90
41471;DHT22;27211;51.220;5.308;2023-02-15T17:38:27;12.50;99.90
41471;DHT22;27211;51.220;5.308;2023-02-15T17:40:54;12.50;99.90
41471;DHT22;27211;51.220;5.308;2023-02-15T17:43:25;12.50;99.90
41471;DHT22;27211;51.220;5.308;2023-02-15T17:45:51;12.10;99.90
41471;DHT22;27211;51.220;5.308;2023-02-15T17:48:31;11.90;99.90
41471;DHT22;27211;51.220;5.308;2023-02-15T17:51:06;12.00;99.90
41471;DHT22;27211;51.220;5.308;2023-02-15T17:53:34;12.10;99.90
41471;DHT22;27211;51.220;5.308;2023-02-15T17:56:03;12.30;99.90
41471;DHT22;27211;51.220;5.308;2023-02-15T17:58:35;12.00;99.90
41471;DHT22;27211;51.220;5.308;2023-02-15T18:01:05;11.80;99.90
41471;DHT22;27211;51.220;5.308;2023-02-15T18:03:51;11.90;99.90
41471;DHT22;27211;51.220;5.308;2023-02-15T18:06:39;12.30;99.90
41471;DHT22;27211;51.220;5.308;2023-02-15T18:09:25;12.50;99.90
41471;DHT22;27211;51.220;5.308;2023-02-15T18:12:22;12.30;99.90
41471;DHT22;27211;51.220;5.308;2023-02-15T18:14:50;11.90;99.90
41471;DHT22;27211;51.220;5.308;2023-02-15T18:17:18;11.80;99.90
41471;DHT22;27211;51.220;5.308;2023-02-15T18:19:50;12.00;99.90
41471;DHT22;27211;51.220;5.308;2023-02-15T18:22:18;12.20;99.90
41471;DHT22;27211;51.220;5.308;2023-02-15T18:24:46;12.30;99.90
41471;DHT22;27211;51.220;5.308;2023-02-15T18:27:20;11.90;99.90
41471;DHT22;27211;51.220;5.308;2023-02-15T18:29:48;11.90;99.90
41471;DHT22;27211;51.220;5.308;2023-02-15T18:32:24;11.90;99.90
41471;DHT22;27211;51.220;5.308;2023-02-15T18:34:55;11.90;99.90
41471;DHT22;27211;51.220;5.308;2023-02-15T18:37:25;11.70;99.90
41471;DHT22;27211;51.220;5.308;2023-02-15T18:39:54;11.40;99.90
41471;DHT22;27211;51.220;5.308;2023-02-15T18:42:33;11.00;99.90
41471;DHT22;27211;51.220;5.308;2023-02-15T18:47:41;11.30;99.90
41471;DHT22;27211;51.220;5.308;2023-02-15T18:50:08;11.30;99.90
41471;DHT22;27211;51.220;5.308;2023-02-15T18:52:37;11.10;99.90
41471;DHT22;27211;51.220;5.308;2023-02-15T18:55:12;11.00;99.90
41471;DHT22;27211;51.220;5.308;2023-02-15T18:57:43;10.90;99.90
41471;DHT22;27211;51.220;5.308;2023-02-15T19:02:50;10.70;99.90
41471;DHT22;27211;51.220;5.308;2023-02-15T19:05:17;10.80;99.90
41471;DHT22;27211;51.220;5.308;2023-02-15T19:07:52;10.90;99.90
41471;DHT22;27211;51.220;5.308;2023-02-15T19:10:25;10.80;99.90
41471;DHT22;27211;51.220;5.308;2023-02-15T19:12:54;10.70;99.90
